McLean, TX (79057)

8:40 PM CDT on July 28, 2014 (GMT -0500)
WT_Meso McLean 1E (MMCST2) Elev 2862 ft | 35.24 °N, 100.57 °W | Change Station

Current weather conditions updated 50 minutes ago

Clear
Clear
73 °F
Feels Like 76 °F
N
5
Wind Variable Wind from SSE
Gusts 7.0 mph

Tomorrow is forecast to be Warmer than today. A few thunderstorms possible.

Today
High -- | Low -- °F
--% Chance of Precip.
Yesterday
High -- | Low -- °F
Precip. -- in
6:48 AM 8:48 PM
Waxing Crescent, 4% visible
Pressure 30.26 in
Visibility 10.0 miles
Clouds Clear
Heat Index 76 °F
Dew Point 61 °F
Humidity 67%
Rainfall -999.00 in
Snow Depth Not available.
UV 0 out of 12
Pollen 3.50 out of 12
Air Quality Not available.
Flu Activity Not available.
METAR KPPA 290115Z AUTO 13003KT 10SM CLR 22/16 A3026 RMK AO2 T02210162

More Conditions Fewer Conditions

Pressure 30.26 in
Visibility 10.0 miles
Clouds Clear
Heat Index 76 °F
Dew Point 61 °F
Humidity 67%
Rainfall -999.00 in
Snow Depth Not available.
UV 0 out of 12
Pollen 3.50 out of 12
Air Quality Not available.
Flu Activity Not available.
METAR KPPA 290115Z AUTO 13003KT 10SM CLR 22/16 A3026 RMK AO2 T02210162

More Conditions Fewer Conditions

10-Day Weather Forecast

Almanac

Astronomy

Jul. 28, 2014 Rise Set
Actual Time 6:48 AM CDT 8:48 PM CDT
Civil Twilight 6:20 AM CDT 9:17 PM CDT
Nautical Twilight 5:45 AM CDT 9:51 PM CDT
Astronomical Twilight 5:09 AM CDT 10:27 PM CDT
Moon 8:25 AM CDT (7/28) 9:38 PM CDT (7/28)
Length of Visible Light 14h 56m
Length of Day
14h 00m
Tomorrow will be 1m 34s shorter.
Waxing Crescent, 4% of the Moon is Illuminated
Today
Waxing Crescent
Aug 3
First Quarter
Aug 10
Full
Aug 17
Last Quarter
Aug 25
New

Today's Extremes

State Highs State Lows

Community

WunderPhotos

Upload Photos

1,738,583 photos uploaded!

WunderBlogs® & News

Nearby

Snow Depth

Station Depth Elevation
No new snow has been reported.

Earthquake Activity

City Distance Mag. Time & Date
No recent earthquake activity has been reported nearby.
Minimum magnitude displayed is 2.5.

Coastal Water Temperatures

Place Temperature
No Stations Reporting

Nearby Weather Stations

Station Location Temp. Heat Index Dew Point Humidity Wind Precip. Elev Updated Type
WT_Meso McLean 1E, McLean, TX 73 °F 76 °F 61 °F 67% SSE  at  5 mph 0.00 in / hr 2862 ft 7:50 PM CDT MADIS
HADS LEFORS WEATHER STATION TX, Lefors, TX 76 °F 78 °F 65 °F 69% SW  at  1 mph 0.00 in / hr 2798 ft 8:00 PM CDT MADIS

Show More Stations Show Fewer Stations